Time;durP1;ratioP1;P1;durP2;ratioP2;P2;SDS_P1;SDS_P2;PMS_P1;PMS_P2;Temp;Humidity;BMP_temperature;BMP_pressure;BME280_temperature;BME280_humidity;BME280_pressure;Samples;Min_cycle;Max_cycle;Signal;HPM_P1;HPM_P2
2021/09/29 00:00:43;;;;;;;;;;;;;;;;;;7328032;19;162625;-15
2021/09/29 00:03:11;;;;;;;;;;;;;;;;;;7329609;19;154128;-15
2021/09/29 00:05:39;;;;;;;;;;;;;;;;;;7329244;19;153431;-16
2021/09/29 00:08:08;;;;;;;;;;;;;;;;;;7328836;19;162059;-15
2021/09/29 00:10:36;;;;;;;;;;;;;;;;;;7328822;19;162545;-14
2021/09/29 00:13:04;;;;;;;;;;;;;;;;;;7329523;19;154209;-14
2021/09/29 00:15:32;;;;;;;;;;;;;;;;;;7328270;19;153489;-14
2021/09/29 00:18:00;;;;;;;;;;;;;;;;;;7331482;19;162133;-15
2021/09/29 00:20:28;;;;;;;;;;;;;;;;;;7328703;19;162660;-16
2021/09/29 00:22:56;;;;;;;;;;;;;;;;;;7327740;19;154214;-14
2021/09/29 00:25:23;;;;;;;;;;;;;;;;;;7332219;19;153382;-14
2021/09/29 00:27:51;;;;;;;;;;;;;;;;;;7327996;19;162042;-16
2021/09/29 00:30:19;;;;;;;;;;;;;;;;;;7328040;19;162903;-13
2021/09/29 00:32:47;;;;;;;;;;;;;;;;;;7326535;19;154297;-13
2021/09/29 00:35:16;;;;;;;;;;;;;;;;;;7328332;19;153514;-15
2021/09/29 08:36:49;;;;;;;4.78;1.95;;;;;;;;;;7360736;19;162651;-15
2021/09/29 08:39:24;;;;;;;1.85;1.42;;;;;;;;;;7363832;19;153981;-14
2021/09/29 08:44:37;;;;;;;4.13;1.70;;;;;;;;;;7368282;19;161845;-13
2021/09/29 08:47:25;;;;;;;3.42;1.70;;;;;;;;;;7363841;19;162425;-14
2021/09/29 08:52:39;;;;;;;10.00;2.13;;;;;;;;;;7364096;19;153524;-13
2021/09/29 09:17:37;;;;;;;7.13;2.28;;;;;;;;;;7361207;19;162415;-14
2021/09/29 09:20:10;;;;;;;6.45;2.42;;;;;;;;;;7361994;19;162369;-12
2021/09/29 09:22:39;;;;;;;6.53;2.42;;;;;;;;;;7363166;19;153897;-14
2021/09/29 09:25:07;;;;;;;6.57;2.35;;;;;;;;;;7363379;19;153595;-13
2021/09/29 09:27:43;;;;;;;7.53;2.00;;;;;;;;;;7351666;19;162422;-13
2021/09/29 09:30:25;;;;;;;11.10;2.50;;;;;;;;;;7334077;19;162337;-14
2021/09/29 09:32:55;;;;;;;6.83;2.20;;;;;;;;;;7334404;19;154053;-13
2021/09/29 09:35:28;;;;;;;7.60;2.03;;;;;;;;;;7334207;19;153510;-14
2021/09/29 09:38:00;;;;;;;14.70;1.90;;;;;;;;;;7330428;19;161983;-12
2021/09/29 09:40:29;;;;;;;6.88;2.40;;;;;;;;;;7333714;19;162433;-14
2021/09/29 09:42:57;;;;;;;6.60;1.88;;;;;;;;;;7332730;19;154073;-14
2021/09/29 09:45:33;;;;;;;7.97;2.28;;;;;;;;;;7332749;19;153660;-13
2021/09/29 09:48:13;;;;;;;10.90;2.30;;;;;;;;;;7333411;19;162116;-14
2021/09/29 09:50:41;;;;;;;8.82;2.38;;;;;;;;;;7332197;19;162590;-13
2021/09/29 09:53:14;;;;;;;8.35;2.30;;;;;;;;;;7333776;19;153886;-14
2021/09/29 09:55:42;;;;;;;7.18;2.03;;;;;;;;;;7332666;19;153584;-14
2021/09/29 09:58:10;;;;;;;4.63;1.77;;;;;;;;;;7334194;19;161888;-13
2021/09/29 10:00:38;;;;;;;9.00;2.50;;;;;;;;;;7333311;19;162658;-14
2021/09/29 10:03:06;;;;;;;10.45;2.55;;;;;;;;;;7332559;19;153941;-14
2021/09/29 10:05:35;;;;;;;9.85;2.45;;;;;;;;;;7333501;19;153562;-14
2021/09/29 10:08:06;;;;;;;6.00;2.30;;;;;;;;;;7331776;19;162027;-14
2021/09/29 10:27:21;;;;;;;5.47;2.00;;;;;;;;;;7330055;19;153642;-13
2021/09/29 10:29:58;;;;;;;5.78;1.92;;;;;;;;;;7332110;19;161852;-13
2021/09/29 10:32:32;;;;;;;5.28;1.88;;;;;;;;;;7332167;19;162681;-14
2021/09/29 10:49:16;;;;;;;5.60;2.03;;;;;;;;;;7331610;19;153516;-14
2021/09/29 10:52:28;;;;;;;8.05;2.10;;;;;;;;;;7331137;19;162046;-14
2021/09/29 11:28:33;;;;;;;18.73;6.32;;;;;;;;;;7330076;19;162442;-13
2021/09/29 11:31:12;;;;;;;16.73;6.60;;;;;;;;;;7334608;19;153924;-13
2021/09/29 11:33:55;;;;;;;8.77;5.55;;;;;;;;;;7331279;19;153711;-15
2021/09/29 12:12:34;;;;;;;10.52;4.70;;;;;;;;;;7329638;19;162437;-13
2021/09/29 12:15:06;;;;;;;10.02;4.30;;;;;;;;;;7328902;19;154154;-13
2021/09/29 12:17:37;;;;;;;13.73;5.20;;;;;;;;;;7328686;19;153565;-14
2021/09/29 12:20:14;;;;;;;11.75;4.28;;;;;;;;;;7329536;19;162043;-13
2021/09/29 12:22:46;;;;;;;13.52;4.65;;;;;;;;;;7329352;19;162229;-13
2021/09/29 12:25:26;;;;;;;11.07;4.37;;;;;;;;;;7329921;19;154160;-15
2021/09/29 12:31:25;;;;;;;13.70;4.97;;;;;;;;;;7330108;19;161904;-13
2021/09/29 12:36:32;;;;;;;8.43;4.45;;;;;;;;;;7328106;19;154021;-14
2021/09/29 12:39:04;;;;;;;10.52;4.20;;;;;;;;;;7326808;19;153751;-16
2021/09/29 12:41:32;;;;;;;19.17;4.70;;;;;;;;;;7327625;19;161929;-14
2021/09/29 12:44:04;;;;;;;8.05;4.28;;;;;;;;;;7328768;19;162322;-14
2021/09/29 12:46:34;;;;;;;9.35;4.35;;;;;;;;;;7329118;19;153935;-14
2021/09/29 12:49:10;;;;;;;14.13;5.13;;;;;;;;;;7327437;19;153547;-15
2021/09/29 12:51:47;;;;;;;15.32;4.70;;;;;;;;;;7328408;19;161965;-15
2021/09/29 12:54:19;;;;;;;13.52;4.72;;;;;;;;;;7328339;19;162494;-16
2021/09/29 12:56:47;;;;;;;11.77;4.53;;;;;;;;;;7328843;19;153993;-16
2021/09/29 12:59:15;;;;;;;10.70;4.82;;;;;;;;;;7326007;19;153697;-14
2021/09/29 13:01:43;;;;;;;9.57;4.15;;;;;;;;;;7328126;19;162001;-16
2021/09/29 13:04:11;;;;;;;11.25;4.45;;;;;;;;;;7333430;19;162246;-15
2021/09/29 13:06:40;;;;;;;8.43;4.43;;;;;;;;;;7335256;19;154080;-16
2021/09/29 13:09:09;;;;;;;12.93;4.55;;;;;;;;;;7338836;19;153622;-15
2021/09/29 13:11:37;;;;;;;9.15;4.00;;;;;;;;;;7335151;19;161653;-16
2021/09/29 13:14:05;;;;;;;9.45;3.17;;;;;;;;;;7332182;19;162720;-14
2021/09/29 13:16:33;;;;;;;13.88;4.35;;;;;;;;;;7335373;19;153925;-15
2021/09/29 13:19:04;;;;;;;12.15;3.78;;;;;;;;;;7333369;19;153618;-16
2021/09/29 13:21:39;;;;;;;18.13;4.32;;;;;;;;;;7333548;19;161842;-14
2021/09/29 13:24:13;;;;;;;9.27;3.28;;;;;;;;;;7334653;19;162272;-15
2021/09/29 13:36:33;;;;;;;;;;;;;;;;;;7334963;19;162605;-15
2021/09/29 13:38:11;;;;;;;;;;;;;;;;;;7334233;19;153982;-15
2021/09/29 13:40:42;;;;;;;;;;;;;;;;;;7335357;19;153037;-16
2021/09/29 13:43:10;;;;;;;;;;;;;;;;;;7334530;19;162055;-14
2021/09/29 13:45:38;;;;;;;;;;;;;;;;;;7334901;19;163226;-17
2021/09/29 13:48:05;;;;;;;;;;;;;;;;;;7335206;19;154057;-15
2021/09/29 13:50:33;;;;;;;;;;;;;;;;;;7333716;19;153527;-15
2021/09/29 13:53:01;;;;;;;;;;;;;;;;;;7333316;19;162333;-16
2021/09/29 13:55:31;;;;;;;;;;;;;;;;;;7334645;19;162581;-16
2021/09/29 13:58:08;;;;;;;;;;;;;;;;;;7334152;19;154396;-16
2021/09/29 14:00:51;;;;;;;;;;;;;;;;;;7334845;19;153330;-13
2021/09/29 14:30:49;;;;;;;;;;;;;;;;;;7333891;19;154424;-16
2021/09/29 14:33:24;;;;;;;;;;;;;;;;;;7332624;19;153342;-14
2021/09/29 14:35:51;;;;;;;;;;;;;;;;;;7333594;19;162330;-15
2021/09/29 14:38:19;;;;;;;;;;;;;;;;;;7332298;19;162781;-15
2021/09/29 14:40:50;;;;;;;;;;;;;;;;;;7333641;19;154264;-15
2021/09/29 14:43:18;;;;;;;;;;;;;;;;;;7333620;19;153325;-15
2021/09/29 14:45:45;;;;;;;;;;;;;;;;;;7332970;19;162048;-15
2021/09/29 14:48:13;;;;;;;;;;;;;;;;;;7333160;19;162572;-16
2021/09/29 14:50:43;;;;;;;;;;;;;;;;;;7333220;19;154651;-15
2021/09/29 14:53:11;;;;;;;;;;;;;;;;;;7333238;19;153439;-16
2021/09/29 14:55:38;;;;;;;;;;;;;;;;;;7332843;19;162161;-15
2021/09/29 14:58:07;;;;;;;;;;;;;;;;;;7331761;19;162687;-15
2021/09/29 15:00:34;;;;;;;;;;;;;;;;;;7332963;19;154303;-15
2021/09/29 15:03:03;;;;;;;;;;;;;;;;;;7333080;19;153345;-17
2021/09/29 15:05:31;;;;;;;;;;;;;;;;;;7332516;19;162194;-16
2021/09/29 15:07:59;;;;;;;;;;;;;;;;;;7332381;19;162556;-15
2021/09/29 15:10:26;;;;;;;;;;;;;;;;;;7332776;19;154201;-15
2021/09/29 15:12:58;;;;;;;;;;;;;;;;;;7332467;19;153431;-14
2021/09/29 15:15:30;;;;;;;;;;;;;;;;;;7330882;19;162330;-14
2021/09/29 15:18:03;;;;;;;;;;;;;;;;;;7331783;19;162759;-13
2021/09/29 15:47:42;;;;;;;;;;;;;;;;;;7331309;19;162336;-15
2021/09/29 15:55:28;;;;;;;;;;;;;;;;;;7334154;19;153418;-14
2021/09/29 16:01:21;;;;;;;;;;;;;;;;;;7333346;19;162480;-14
2021/09/29 16:09:34;;;;;;;;;;;;;;;;;;7332622;19;161962;-15
2021/09/29 16:30:31;;;;;;;;;;;;;;;;;;7329388;19;163136;-15
2021/09/29 16:35:42;;;;;;;;;;;;;;;;;;7330095;19;154133;-17
2021/09/29 16:38:10;;;;;;;;;;;;;;;;;;7332177;19;153363;-16
2021/09/29 16:40:38;;;;;;;;;;;;;;;;;;7334184;19;161978;-16
2021/09/29 16:43:05;;;;;;;;;;;;;;;;;;7336478;19;162355;-16
2021/09/29 16:45:33;;;;;;;;;;;;;;;;;;7336547;19;154268;-15
2021/09/29 16:48:01;;;;;;;;;;;;;;;;;;7335489;19;153364;-14
2021/09/29 16:53:15;;;;;;;;;;;;;;;;;;7335988;19;162611;-15
2021/09/29 16:55:44;;;;;;;;;;;;;;;;;;7336042;19;154314;-15
2021/09/29 16:58:40;;;;;;;;;;;;;;;;;;7336375;19;153576;-23
2021/09/29 17:01:09;;;;;;;;;;;;;;;;;;7333792;19;162098;-17
2021/09/29 17:03:38;;;;;;;;;;;;;;;;;;7334612;19;162397;-13
2021/09/29 17:06:08;;;;;;;;;;;;;;;;;;7335904;19;153948;-13
2021/09/29 17:08:37;;;;;;;;;;;;;;;;;;7338209;19;153591;-15
2021/09/29 17:11:07;;;;;;;;;;;;;;;;;;7338430;19;161984;-13
2021/09/29 17:13:41;;;;;;;;;;;;;;;;;;7338115;19;162973;-14
2021/09/29 17:16:10;;;;;;;;;;;;;;;;;;7337906;19;154207;-13
2021/09/29 17:18:39;;;;;;;;;;;;;;;;;;7338655;19;153591;-14
2021/09/29 17:21:07;;;;;;;;;;;;;;;;;;7337845;19;161991;-14
2021/09/29 17:23:35;;;;;;;;;;;;;;;;;;7337222;19;162599;-15
2021/09/29 17:26:03;;;;;;;;;;;;;;;;;;7338543;19;154129;-13
2021/09/29 17:28:31;;;;;;;;;;;;;;;;;;7338463;19;153347;-14
2021/09/29 17:31:02;;;;;;;;;;;;;;;;;;7338172;19;162084;-14
2021/09/29 17:37:04;;;;;;;;;;;;;;;;;;7335484;19;154479;-13
2021/09/29 17:53:14;;;;;;;;;;;;;;;;;;7335783;19;162438;-14
2021/09/29 17:55:43;;;;;;;;;;;;;;;;;;7337011;19;162439;-14
2021/09/29 17:58:12;;;;;;;;;;;;;;;;;;7336863;19;154237;-14
2021/09/29 18:00:44;;;;;;;;;;;;;;;;;;7335604;19;153257;-13
2021/09/29 18:03:30;;;;;;;;;;;;;;;;;;7337553;19;161877;-16
2021/09/29 18:06:15;;;;;;;;;;;;;;;;;;7337384;19;162387;-13
2021/09/29 18:08:43;;;;;;;;;;;;;;;;;;7337736;19;154140;-13
2021/09/29 18:11:10;;;;;;;;;;;;;;;;;;7337435;19;153447;-15
2021/09/29 18:13:39;;;;;;;;;;;;;;;;;;7336554;19;162305;-14
2021/09/29 18:16:09;;;;;;;;;;;;;;;;;;7337121;19;162588;-13
2021/09/29 18:18:37;;;;;;;;;;;;;;;;;;7336496;19;154595;-14
2021/09/29 18:21:05;;;;;;;;;;;;;;;;;;7334822;19;153757;-13
2021/09/29 18:23:32;;;;;;;;;;;;;;;;;;7336623;19;161970;-13
2021/09/29 18:26:11;;;;;;;;;;;;;;;;;;7335324;19;162567;-15
2021/09/29 18:28:42;;;;;;;;;;;;;;;;;;7335344;19;154178;-15
2021/09/29 18:31:10;;;;;;;;;;;;;;;;;;7337020;19;153301;-15
2021/09/29 18:33:38;;;;;;;;;;;;;;;;;;7336175;19;161703;-17
2021/09/29 18:36:10;;;;;;;;;;;;;;;;;;7336378;19;162557;-13
2021/09/29 18:38:39;;;;;;;;;;;;;;;;;;7336607;19;154463;-13
2021/09/29 18:41:18;;;;;;;;;;;;;;;;;;7334490;19;153396;-12
2021/09/29 18:43:50;;;;;;;;;;;;;;;;;;7336244;19;162137;-13
2021/09/29 18:46:22;;;;;;;;;;;;;;;;;;7335303;19;162278;-12
2021/09/29 18:48:53;;;;;;;;;;;;;;;;;;7333190;19;154768;-15
2021/09/29 18:51:22;;;;;;;;;;;;;;;;;;7332837;19;153447;-13
2021/09/29 18:54:13;;;;;;;;;;;;;;;;;;7332632;19;162023;-13
2021/09/29 19:07:27;;;;;;;;;;;;;;;;;;7332252;19;162644;-14
2021/09/29 19:09:55;;;;;;;;;;;;;;;;;;7331460;19;154161;-15
2021/09/29 19:12:24;;;;;;;;;;;;;;;;;;7331237;19;153771;-15
2021/09/29 19:14:54;;;;;;;;;;;;;;;;;;7330889;19;162772;-16
2021/09/29 19:17:22;;;;;;;;;;;;;;;;;;7332092;19;162680;-15
2021/09/29 19:19:51;;;;;;;;;;;;;;;;;;7330367;19;154488;-14
2021/09/29 19:22:24;;;;;;;;;;;;;;;;;;7332110;19;153480;-14
2021/09/29 19:24:53;;;;;;;;;;;;;;;;;;7332242;19;162096;-15
2021/09/29 19:27:23;;;;;;;;;;;;;;;;;;7329832;19;162220;-15
2021/09/29 19:29:51;;;;;;;;;;;;;;;;;;7331951;19;154335;-14
2021/09/29 19:32:19;;;;;;;;;;;;;;;;;;7331809;19;153336;-15
2021/09/29 19:34:46;;;;;;;;;;;;;;;;;;7333599;19;162216;-14
2021/09/29 19:37:14;;;;;;;;;;;;;;;;;;7334240;19;162674;-15
2021/09/29 19:39:42;;;;;;;;;;;;;;;;;;7334963;19;154366;-16
2021/09/29 19:42:11;;;;;;;;;;;;;;;;;;7333530;19;153361;-17
2021/09/29 19:44:39;;;;;;;;;;;;;;;;;;7333856;19;161955;-23
2021/09/29 19:47:12;;;;;;;;;;;;;;;;;;7334279;19;162567;-14
2021/09/29 19:49:58;;;;;;;;;;;;;;;;;;7335105;19;154422;-23
2021/09/29 20:08:53;;;;;;;;;;;;;;;;;;7329557;19;162357;-15
2021/09/29 20:11:21;;;;;;;;;;;;;;;;;;7329647;19;154143;-15
2021/09/29 20:13:49;;;;;;;;;;;;;;;;;;7328481;19;153916;-14
2021/09/29 20:16:17;;;;;;;;;;;;;;;;;;7333720;19;162318;-14
2021/09/29 20:18:47;;;;;;;;;;;;;;;;;;7330159;19;162619;-14
2021/09/29 20:21:14;;;;;;;;;;;;;;;;;;7328666;19;154471;-15
2021/09/29 20:23:42;;;;;;;;;;;;;;;;;;7329741;19;153426;-15
2021/09/29 20:26:10;;;;;;;;;;;;;;;;;;7330016;19;162048;-16
2021/09/29 20:28:38;;;;;;;;;;;;;;;;;;7329651;19;162568;-16
2021/09/29 20:31:07;;;;;;;;;;;;;;;;;;7333252;19;154528;-14
2021/09/29 20:44:11;;;;;;;;;;;;;;;;;;7333059;19;153491;-14
2021/09/29 20:46:39;;;;;;;;;;;;;;;;;;7332192;19;162214;-16
2021/09/29 20:49:07;;;;;;;;;;;;;;;;;;7331183;19;162493;-15
2021/09/29 20:51:35;;;;;;;;;;;;;;;;;;7332129;19;154022;-15
2021/09/29 20:54:05;;;;;;;;;;;;;;;;;;7332668;19;153005;-14
2021/09/29 20:56:34;;;;;;;;;;;;;;;;;;7329720;19;162311;-15
2021/09/29 20:59:02;;;;;;;;;;;;;;;;;;7330958;19;162709;-16
2021/09/29 21:01:30;;;;;;;;;;;;;;;;;;7330776;19;154139;-15
2021/09/29 21:03:58;;;;;;;;;;;;;;;;;;7331731;19;153371;-15
2021/09/29 21:06:29;;;;;;;;;;;;;;;;;;7330929;19;162296;-16
2021/09/29 21:09:07;;;;;;;;;;;;;;;;;;7330723;19;162181;-15
2021/09/29 21:11:47;;;;;;;;;;;;;;;;;;7330235;19;154313;-14
2021/09/29 21:14:20;;;;;;;;;;;;;;;;;;7331809;19;153318;-16
2021/09/29 21:19:27;;;;;;;;;;;;;;;;;;7330054;19;162485;-15
2021/09/29 21:21:55;;;;;;;;;;;;;;;;;;7328355;19;154203;-16
2021/09/29 21:24:23;;;;;;;;;;;;;;;;;;7335082;19;153503;-15
2021/09/29 21:26:51;;;;;;;;;;;;;;;;;;7336337;19;162070;-15
2021/09/29 21:29:20;;;;;;;;;;;;;;;;;;7336355;19;162551;-15
2021/09/29 21:31:47;;;;;;;;;;;;;;;;;;7338592;19;154329;-15
2021/09/29 21:34:15;;;;;;;;;;;;;;;;;;7338422;19;153538;-14
2021/09/29 21:36:43;;;;;;;;;;;;;;;;;;7338070;19;161968;-17
2021/09/29 21:39:21;;;;;;;;;;;;;;;;;;7338216;19;162510;-16
2021/09/29 21:42:20;;;;;;;;;;;;;;;;;;7337004;19;154157;-14
2021/09/29 21:45:06;;;;;;;;;;;;;;;;;;7337051;19;153512;-14
2021/09/29 21:47:59;;;;;;;;;;;;;;;;;;7337934;19;162101;-13
2021/09/29 22:15:37;;;;;;;;;;;;;;;;;;7337821;19;153925;-16
2021/09/29 22:17:45;;;;;;;;;;;;;;;;;;7334627;19;153332;-14
2021/09/29 23:05:52;;;;;;;;;;;;;;;;;;7332305;19;162471;-14
2021/09/29 23:34:02;;;;;;;;;;;;;;;;;;7327784;19;153319;-12
2021/09/29 23:36:30;;;;;;;;;;;;;;;;;;7330845;19;162140;-14
2021/09/29 23:38:58;;;;;;;;;;;;;;;;;;7331590;19;162585;-13
